createdAt,value
2018-06-03T00:10:28.000Z,1011.687
2018-06-03T00:20:28.000Z,1011.615
2018-06-03T00:30:28.000Z,1011.553
2018-06-03T00:40:28.000Z,1011.579
2018-06-03T00:50:28.000Z,1011.624
2018-06-03T01:00:28.000Z,1011.71
2018-06-03T01:10:28.000Z,1011.708
2018-06-03T01:20:28.000Z,1011.638
2018-06-03T01:30:28.000Z,1011.64
2018-06-03T01:40:28.000Z,1011.544
2018-06-03T01:50:28.000Z,1011.506
2018-06-03T02:00:28.000Z,1011.481
2018-06-03T02:10:28.000Z,1011.471
2018-06-03T02:20:28.000Z,1011.408
2018-06-03T02:30:28.000Z,1011.364
2018-06-03T02:40:28.000Z,1011.302
2018-06-03T02:50:28.000Z,1011.259
2018-06-03T03:00:28.000Z,1011.285
2018-06-03T03:10:28.000Z,1011.259
2018-06-03T03:20:29.000Z,1011.338
2018-06-03T03:30:28.000Z,1011.437
2018-06-03T03:40:28.000Z,1011.408
2018-06-03T03:50:29.000Z,1011.394
2018-06-03T04:00:29.000Z,1011.406
2018-06-03T04:10:29.000Z,1011.407
2018-06-03T04:20:29.000Z,1011.454
2018-06-03T04:30:29.000Z,1011.443
2018-06-03T04:40:29.000Z,1011.505
2018-06-03T04:50:29.000Z,1011.578
2018-06-03T05:00:29.000Z,1011.635
2018-06-03T05:10:29.000Z,1011.72
2018-06-03T05:30:29.000Z,1011.791
2018-06-03T05:40:29.000Z,1011.808
2018-06-03T05:50:29.000Z,1011.836
2018-06-03T06:00:29.000Z,1011.948
2018-06-03T06:10:29.000Z,1012.054
2018-06-03T06:20:29.000Z,1012.089
2018-06-03T06:30:29.000Z,1012.109
2018-06-03T06:40:29.000Z,1012.093
2018-06-03T06:50:29.000Z,1012.223
2018-06-03T07:00:29.000Z,1012.298
2018-06-03T07:10:29.000Z,1012.359
2018-06-03T07:20:29.000Z,1012.365
2018-06-03T07:30:29.000Z,1012.341
2018-06-03T07:40:29.000Z,1012.356
2018-06-03T07:50:29.000Z,1012.37
2018-06-03T08:00:29.000Z,1012.339
2018-06-03T08:10:29.000Z,1012.291
2018-06-03T08:20:29.000Z,1012.271
2018-06-03T08:30:29.000Z,1012.307
2018-06-03T08:40:29.000Z,1012.333
2018-06-03T08:50:29.000Z,1012.344
2018-06-03T09:00:29.000Z,1012.399
2018-06-03T09:10:29.000Z,1012.403
2018-06-03T09:20:29.000Z,1012.418
2018-06-03T09:30:29.000Z,1012.441
2018-06-03T09:40:29.000Z,1012.357
2018-06-03T09:50:29.000Z,1012.315
2018-06-03T10:00:29.000Z,1012.221
2018-06-03T10:10:29.000Z,1012.062
2018-06-03T10:20:29.000Z,1011.983
2018-06-03T10:30:29.000Z,1012.013
2018-06-03T10:40:29.000Z,1012.106
2018-06-03T10:50:30.000Z,1012.039
2018-06-03T11:00:29.000Z,1012.037
2018-06-03T11:10:29.000Z,1011.904
2018-06-03T11:20:29.000Z,1011.879
2018-06-03T11:30:29.000Z,1011.775
2018-06-03T11:40:29.000Z,1011.79
2018-06-03T11:50:32.000Z,1011.757
2018-06-03T12:10:30.000Z,1011.689
2018-06-03T12:20:30.000Z,1011.609
2018-06-03T12:30:30.000Z,1011.526
2018-06-03T12:50:30.000Z,1011.44
2018-06-03T13:00:30.000Z,1011.257
2018-06-03T13:10:30.000Z,1011.218
2018-06-03T13:20:30.000Z,1011.151
2018-06-03T13:30:30.000Z,1011.103
2018-06-03T13:40:30.000Z,1011.079
2018-06-03T13:50:30.000Z,1010.951
2018-06-03T14:10:30.000Z,1010.687
2018-06-03T14:20:30.000Z,1010.637
2018-06-03T14:30:30.000Z,1010.58
2018-06-03T14:40:30.000Z,1010.532
2018-06-03T14:50:32.000Z,1010.52
2018-06-03T15:00:30.000Z,1010.367
2018-06-03T15:10:30.000Z,1010.274
2018-06-03T15:20:30.000Z,1010.156
2018-06-03T15:40:30.000Z,1009.945
2018-06-03T15:50:30.000Z,1009.813
2018-06-03T16:00:30.000Z,1009.797
2018-06-03T16:10:30.000Z,1009.707
2018-06-03T16:20:30.000Z,1009.573
2018-06-03T16:30:30.000Z,1009.5
2018-06-03T16:40:30.000Z,1009.43
2018-06-03T16:50:30.000Z,1009.459
2018-06-03T17:00:30.000Z,1009.443
2018-06-03T17:10:34.000Z,1009.386
2018-06-03T17:20:30.000Z,1009.33
2018-06-03T17:30:30.000Z,1009.244
2018-06-03T17:40:30.000Z,1009.131
2018-06-03T18:00:30.000Z,1008.898
2018-06-03T18:10:31.000Z,1008.883
2018-06-03T18:20:31.000Z,1008.815
2018-06-03T18:30:30.000Z,1008.758
2018-06-03T18:40:30.000Z,1008.767
2018-06-03T18:50:30.000Z,1008.69
2018-06-03T19:00:30.000Z,1008.655
2018-06-03T19:10:30.000Z,1008.672
2018-06-03T19:30:34.000Z,1008.74
2018-06-03T19:40:30.000Z,1008.707
2018-06-03T19:50:30.000Z,1008.797
2018-06-03T20:00:31.000Z,1008.955
2018-06-03T20:20:34.000Z,1009.019
2018-06-03T20:30:31.000Z,1009.034
2018-06-03T21:30:32.000Z,1009.137
2018-06-03T21:40:31.000Z,1009.082
2018-06-03T21:50:31.000Z,1009.065
2018-06-03T22:00:31.000Z,1009.049
2018-06-03T22:10:31.000Z,1008.967
2018-06-03T22:20:31.000Z,1008.998
2018-06-03T22:30:31.000Z,1009.055
2018-06-03T22:40:31.000Z,1009.046
2018-06-03T22:50:31.000Z,1008.946
2018-06-03T23:00:31.000Z,1008.965
2018-06-03T23:10:31.000Z,1008.92
2018-06-03T23:20:31.000Z,1008.858
2018-06-03T23:30:31.000Z,1008.819
2018-06-03T23:40:31.000Z,1008.688
2018-06-03T23:50:31.000Z,1008.549
